Terminal Aerodrome Forecast
Issued by NWS

Home | Current Version | Previous Version | Text Only | Print | Product List | Glossary On
Versions: 1 2 3 4 5 6 7 8 9 10 11 12 13
000
FTUS45 KVEF 291723
TAFDAG
TAF
KDAG 291723Z 2918/3018 30011KT P6SM FEW250
     FM292300 25014G24KT P6SM SCT250
     FM300500 26012KT P6SM SCT250=

USA.gov is the U.S. government's official web portal to all federal, state and local government web resources and services.